In Rescue
 
Open Full Screen Window  High Contrast Mode
Wind Gusting 00 knots
10
February 25, 2021 4:17 PM CST
Weather Information
Wind Direction
  220 °
Wind Speed
  10 kt (12 mph)
Wind Gust
  00 kt (0 mph)
Altimeter
30.14 in
Visibility
10 SM
Temperature
04° C
39° F
Dewpoint
-03° C
27° F
Humidity
61%
1hr Rain Fall
00.00 in.
24hr Rain Fall
00.00 in.
Sky Condition
Clear
VFR

METAR KAQP 252217Z AUTO 22010KT 10SM CLR 04/M03 A3014 RMK AO2

FAA Disclaimer: The data displayed is for advisory purposes only and is not to be used for flight planning or operations.